Areia, Brazil
Current Conditions -  °F | °C
As of 3:00 AM on Saturday 25 Oct 2014 (Local Time) from SBKG Reporting Station
Haze Haze  
Wind Chill: 68°   Ceiling: 900
Heat Index: 68°   Visibility: 2.5mi
Dew Point: 68°   Wind: 6mph
Humidity: 100%   Direction: 110°ESE
Pressure: 29.94"   Gusts: NA
Location:  6.96°S, 35.69°W
Report Text: SBKG 250600Z 11005KT 4000 BR OVC009 20/20 Q1014
Loading
Personal Weather Stations






























Interactive Weather Map
Tropical Storm Tracking
New forecast layout! Learn more

10-Day Weather Forecast

Advertisements
Track Severe Weather on mobile